Time;durP1;ratioP1;P1;durP2;ratioP2;P2;SDS_P1;SDS_P2;PMS_P1;PMS_P2;Temp;Humidity;BMP_temperature;BMP_pressure;BME280_temperature;BME280_humidity;BME280_pressure;Samples;Min_cycle;Max_cycle;Signal;HPM_P1;HPM_P2
2021/07/21 00:00:45;;;;;;;12.73;8.63;;;;;;;;;;4957576;28;20031;-82
2021/07/21 00:03:30;;;;;;;12.25;8.55;;;;;;;;;;4958283;28;20073;-82
2021/07/21 00:06:15;;;;;;;12.52;8.00;;;;;;;;;;4948094;28;20082;-82
2021/07/21 00:09:00;;;;;;;12.45;8.27;;;;;;;;;;4971309;28;20034;-82
2021/07/21 00:14:50;;;;;;;13.98;8.63;;;;;;;;;;4971052;28;20022;-83
2021/07/21 00:17:37;;;;;;;11.82;8.48;;;;;;;;;;4970700;28;20026;-82
2021/07/21 00:20:22;;;;;;;13.68;8.93;;;;;;;;;;4969101;28;20661;-83
2021/07/21 00:23:07;;;;;;;14.88;8.65;;;;;;;;;;4970742;28;20063;-84
2021/07/21 00:25:53;;;;;;;13.27;9.35;;;;;;;;;;4970635;28;20027;-82
2021/07/21 00:28:41;;;;;;;12.95;8.32;;;;;;;;;;4970995;28;20022;-82
2021/07/21 00:31:26;;;;;;;13.63;8.27;;;;;;;;;;4970334;28;20421;-82
2021/07/21 00:34:12;;;;;;;12.60;8.05;;;;;;;;;;4970740;28;20542;-82
2021/07/21 00:36:57;;;;;;;14.82;8.50;;;;;;;;;;4970709;28;20023;-82
2021/07/21 00:39:42;;;;;;;13.48;8.57;;;;;;;;;;4970343;28;20086;-82
2021/07/21 00:42:27;;;;;;;13.77;8.00;;;;;;;;;;4970474;28;20062;-82
2021/07/21 00:45:12;;;;;;;15.90;9.23;;;;;;;;;;4970499;28;20150;-82
2021/07/21 00:47:58;;;;;;;13.90;9.38;;;;;;;;;;4970333;28;20022;-81
2021/07/21 00:50:43;;;;;;;13.02;8.45;;;;;;;;;;4970800;28;20019;-81
2021/07/21 00:53:28;;;;;;;14.93;8.20;;;;;;;;;;4970266;28;20018;-82
2021/07/21 00:56:14;;;;;;;11.23;8.43;;;;;;;;;;4970071;28;20031;-83
2021/07/21 00:58:59;;;;;;;12.18;8.10;;;;;;;;;;4968989;28;20045;-82
2021/07/21 01:01:45;;;;;;;12.27;8.60;;;;;;;;;;4969786;28;20026;-82
2021/07/21 01:04:32;;;;;;;14.43;8.15;;;;;;;;;;4969909;28;20081;-82
2021/07/21 01:07:18;;;;;;;14.68;9.40;;;;;;;;;;4969736;28;20462;-82
2021/07/21 01:10:03;;;;;;;12.00;7.93;;;;;;;;;;4967938;28;20516;-82
2021/07/21 01:13:11;;;;;;;12.88;8.40;;;;;;;;;;4963842;28;20074;-82
2021/07/21 01:16:00;;;;;;;12.93;8.27;;;;;;;;;;4961329;28;20469;-82
2021/07/21 01:18:59;;;;;;;12.35;8.55;;;;;;;;;;4969659;28;20026;-82
2021/07/21 01:21:53;;;;;;;15.47;7.97;;;;;;;;;;4969381;28;20023;-82
2021/07/21 01:24:46;;;;;;;11.85;8.45;;;;;;;;;;4967823;28;20026;-82
2021/07/21 01:27:35;;;;;;;12.38;7.95;;;;;;;;;;4969670;28;20247;-82
2021/07/21 01:30:22;;;;;;;12.68;7.68;;;;;;;;;;4969238;28;20023;-83
2021/07/21 01:33:09;;;;;;;14.45;9.13;;;;;;;;;;4969485;28;20031;-83
2021/07/21 01:35:59;;;;;;;16.85;8.40;;;;;;;;;;4969695;28;20076;-83
2021/07/21 01:38:53;;;;;;;13.98;9.48;;;;;;;;;;4969668;28;20026;-83
2021/07/21 01:41:43;;;;;;;12.85;7.93;;;;;;;;;;4967483;28;20335;-82
2021/07/21 01:44:29;;;;;;;13.85;9.05;;;;;;;;;;4969533;28;20029;-82
2021/07/21 01:47:21;;;;;;;11.23;8.43;;;;;;;;;;4968993;28;20033;-82
2021/07/21 01:50:07;;;;;;;13.93;8.65;;;;;;;;;;4969486;28;20027;-82
2021/07/21 01:52:54;;;;;;;14.10;8.45;;;;;;;;;;4968942;28;20031;-83
2021/07/21 01:55:40;;;;;;;13.35;8.88;;;;;;;;;;4969304;28;20049;-83
2021/07/21 01:58:26;;;;;;;13.30;7.85;;;;;;;;;;4969127;28;20039;-82
2021/07/21 02:01:11;;;;;;;12.38;8.18;;;;;;;;;;4968974;28;20114;-82
2021/07/21 02:03:57;;;;;;;18.40;9.10;;;;;;;;;;4969418;28;20031;-82
2021/07/21 02:06:43;;;;;;;15.65;9.05;;;;;;;;;;4968568;28;20053;-83
2021/07/21 02:09:28;;;;;;;11.52;7.82;;;;;;;;;;4967120;28;20015;-82
2021/07/21 02:12:14;;;;;;;13.93;8.80;;;;;;;;;;4963335;28;20027;-81
2021/07/21 02:14:59;;;;;;;15.80;9.82;;;;;;;;;;4954502;28;20023;-82
2021/07/21 02:17:45;;;;;;;15.52;9.60;;;;;;;;;;4967514;28;20027;-81
2021/07/21 02:20:30;;;;;;;14.10;8.98;;;;;;;;;;4968894;28;20026;-82
2021/07/21 02:23:17;;;;;;;13.07;7.80;;;;;;;;;;4968393;28;20031;-81
2021/07/21 02:26:02;;;;;;;11.02;7.95;;;;;;;;;;4968194;28;20050;-81
2021/07/21 02:28:48;;;;;;;12.43;8.57;;;;;;;;;;4962243;28;20430;-81
2021/07/21 02:31:37;;;;;;;12.23;8.43;;;;;;;;;;4949686;29;20446;-82
2021/07/21 02:34:22;;;;;;;13.38;8.88;;;;;;;;;;4949818;29;20034;-81
2021/07/21 02:37:08;;;;;;;12.18;7.88;;;;;;;;;;4949228;29;20035;-80
2021/07/21 02:39:54;;;;;;;12.55;8.32;;;;;;;;;;4947871;29;20383;-81
2021/07/21 02:42:39;;;;;;;16.23;8.15;;;;;;;;;;4949054;29;20066;-81
2021/07/21 02:45:25;;;;;;;14.23;9.18;;;;;;;;;;4949219;29;20026;-81
2021/07/21 02:48:10;;;;;;;11.18;8.20;;;;;;;;;;4949293;29;20640;-81
2021/07/21 02:51:02;;;;;;;16.15;8.30;;;;;;;;;;4948895;29;20031;-81
2021/07/21 02:53:52;;;;;;;15.73;9.90;;;;;;;;;;4949257;29;20032;-81
2021/07/21 02:56:45;;;;;;;13.07;8.88;;;;;;;;;;4948744;29;20059;-83
2021/07/21 02:59:37;;;;;;;10.90;7.78;;;;;;;;;;4934529;29;20023;-82
2021/07/21 03:02:23;;;;;;;11.38;7.90;;;;;;;;;;4948906;29;20027;-81
2021/07/21 03:05:10;;;;;;;14.48;8.88;;;;;;;;;;4949133;29;20034;-82
2021/07/21 03:07:57;;;;;;;15.02;8.65;;;;;;;;;;4948736;29;20035;-82
2021/07/21 03:10:42;;;;;;;13.15;9.77;;;;;;;;;;4947727;29;20023;-82
2021/07/21 03:13:29;;;;;;;14.02;8.70;;;;;;;;;;4964372;28;20023;-83
2021/07/21 03:16:15;;;;;;;15.45;8.82;;;;;;;;;;4962285;28;20027;-82
2021/07/21 03:19:01;;;;;;;15.43;8.80;;;;;;;;;;4947470;29;20520;-82
2021/07/21 03:21:47;;;;;;;12.73;8.80;;;;;;;;;;4950285;28;20058;-82
2021/07/21 03:24:32;;;;;;;14.30;8.50;;;;;;;;;;4953113;29;20027;-82
2021/07/21 03:27:18;;;;;;;13.85;8.90;;;;;;;;;;4952366;29;20466;-82
2021/07/21 03:30:07;;;;;;;13.38;8.95;;;;;;;;;;4950828;29;20036;-82
2021/07/21 03:32:53;;;;;;;;;;;;;;;;;;4953178;29;20034;-82
2021/07/21 03:35:39;;;;;;;14.30;8.45;;;;;;;;;;4965578;28;19914;-82
2021/07/21 03:38:25;;;;;;;14.30;9.52;;;;;;;;;;4952682;29;20027;-82
2021/07/21 03:41:10;;;;;;;14.13;8.48;;;;;;;;;;4952276;29;20077;-81
2021/07/21 03:43:56;;;;;;;16.80;9.07;;;;;;;;;;4950631;29;20267;-81
2021/07/21 03:46:41;;;;;;;13.93;9.25;;;;;;;;;;4952524;29;20027;-81
2021/07/21 03:49:27;;;;;;;14.43;9.38;;;;;;;;;;4952095;29;20485;-82
2021/07/21 03:52:13;;;;;;;13.05;8.50;;;;;;;;;;4952224;29;20367;-81
2021/07/21 03:54:58;;;;;;;12.43;7.95;;;;;;;;;;4952293;29;20027;-81
2021/07/21 03:57:44;;;;;;;12.32;9.13;;;;;;;;;;4951746;29;20023;-82
2021/07/21 04:00:29;;;;;;;13.55;8.73;;;;;;;;;;4952036;29;20130;-82
2021/07/21 04:03:14;;;;;;;11.98;7.78;;;;;;;;;;4950362;29;20031;-81
2021/07/21 04:06:00;;;;;;;11.30;8.70;;;;;;;;;;4951621;29;20043;-82
2021/07/21 04:08:46;;;;;;;12.43;8.20;;;;;;;;;;4951973;29;20035;-81
2021/07/21 04:11:32;;;;;;;13.73;8.30;;;;;;;;;;4951960;28;20023;-81
2021/07/21 04:14:18;;;;;;;14.00;8.80;;;;;;;;;;4969598;28;20023;-81
2021/07/21 04:17:05;;;;;;;15.93;10.32;;;;;;;;;;4948557;29;20076;-82
2021/07/21 04:19:51;;;;;;;14.05;9.38;;;;;;;;;;4951427;29;20028;-81
2021/07/21 04:22:37;;;;;;;15.95;9.00;;;;;;;;;;4951508;29;20023;-81
2021/07/21 04:25:23;;;;;;;14.50;9.13;;;;;;;;;;4951514;29;20106;-81
2021/07/21 04:28:09;;;;;;;14.90;9.05;;;;;;;;;;4951635;29;20021;-81
2021/07/21 04:30:55;;;;;;;14.43;9.10;;;;;;;;;;4949853;29;20114;-81
2021/07/21 04:33:40;;;;;;;12.00;8.45;;;;;;;;;;4950793;28;20023;-81
2021/07/21 04:36:26;;;;;;;13.13;8.73;;;;;;;;;;4951471;29;20074;-81
2021/07/21 04:39:18;;;;;;;12.23;8.38;;;;;;;;;;4949669;29;20070;-81
2021/07/21 04:42:04;;;;;;;13.32;8.90;;;;;;;;;;4951235;29;20023;-82
2021/07/21 04:44:49;;;;;;;14.15;8.45;;;;;;;;;;4949600;29;20090;-81
2021/07/21 04:47:35;;;;;;;12.38;8.35;;;;;;;;;;4950998;29;20031;-81
2021/07/21 04:50:21;;;;;;;16.35;9.95;;;;;;;;;;4951250;29;20047;-81
2021/07/21 04:53:07;;;;;;;12.75;8.43;;;;;;;;;;4951093;29;20074;-81
2021/07/21 04:55:52;;;;;;;16.23;9.07;;;;;;;;;;4950710;29;20108;-81
2021/07/21 04:58:38;;;;;;;15.23;9.30;;;;;;;;;;4951070;29;20019;-81
2021/07/21 05:01:23;;;;;;;13.77;8.60;;;;;;;;;;4950459;29;20438;-82
2021/07/21 05:04:08;;;;;;;13.40;8.48;;;;;;;;;;4950891;29;20023;-81
2021/07/21 05:06:53;;;;;;;14.50;8.95;;;;;;;;;;4950515;29;20047;-82
2021/07/21 05:09:38;;;;;;;17.23;8.60;;;;;;;;;;4950541;29;20407;-82
2021/07/21 05:12:24;;;;;;;16.48;9.70;;;;;;;;;;4958445;28;20061;-83
2021/07/21 05:15:09;;;;;;;13.88;8.93;;;;;;;;;;4964558;28;20055;-83
2021/07/21 05:17:54;;;;;;;15.60;9.48;;;;;;;;;;4950804;29;20023;-83
2021/07/21 05:20:39;;;;;;;13.45;8.55;;;;;;;;;;4949402;29;20454;-84
2021/07/21 05:23:25;;;;;;;13.32;8.63;;;;;;;;;;4950324;29;20065;-83
2021/07/21 05:26:11;;;;;;;16.27;9.60;;;;;;;;;;4948782;29;20621;-82
2021/07/21 05:28:57;;;;;;;13.48;9.07;;;;;;;;;;4950651;29;20054;-83
2021/07/21 05:31:42;;;;;;;15.27;8.93;;;;;;;;;;4950204;29;20035;-82
2021/07/21 05:34:28;;;;;;;13.40;8.95;;;;;;;;;;4950366;29;20398;-83
2021/07/21 05:37:13;;;;;;;12.80;9.32;;;;;;;;;;4950459;29;20031;-83
2021/07/21 05:39:58;;;;;;;14.30;8.68;;;;;;;;;;4948596;29;20035;-82
2021/07/21 05:42:43;;;;;;;12.75;9.27;;;;;;;;;;4950149;29;20110;-83
2021/07/21 05:45:29;;;;;;;11.90;8.48;;;;;;;;;;4946449;29;20019;-83
2021/07/21 05:48:14;;;;;;;13.63;8.45;;;;;;;;;;4948329;29;20027;-82
2021/07/21 05:50:59;;;;;;;13.38;8.18;;;;;;;;;;4949763;29;20552;-82
2021/07/21 05:53:44;;;;;;;15.13;9.05;;;;;;;;;;4949658;29;20094;-83
2021/07/21 05:56:30;;;;;;;12.27;9.00;;;;;;;;;;4949922;29;20079;-82
2021/07/21 05:59:16;;;;;;;14.73;9.05;;;;;;;;;;4950133;29;20035;-83
2021/07/21 06:02:01;;;;;;;16.33;10.50;;;;;;;;;;4949541;29;20221;-83
2021/07/21 06:04:46;;;;;;;12.27;8.65;;;;;;;;;;4949662;29;20062;-82
2021/07/21 06:07:31;;;;;;;15.43;9.90;;;;;;;;;;4946669;29;20138;-82
2021/07/21 06:10:16;;;;;;;23.88;9.68;;;;;;;;;;4949602;29;20031;-83
2021/07/21 06:13:02;;;;;;;14.70;9.45;;;;;;;;;;4964560;28;20038;-83
2021/07/21 06:15:47;;;;;;;19.55;9.40;;;;;;;;;;4973376;28;20057;-83
2021/07/21 06:18:33;;;;;;;14.82;9.32;;;;;;;;;;4968835;28;20034;-83
2021/07/21 06:21:19;;;;;;;14.02;8.98;;;;;;;;;;4968943;28;20027;-84
2021/07/21 06:24:04;;;;;;;16.33;9.68;;;;;;;;;;4955546;28;20334;-83
2021/07/21 06:26:49;;;;;;;16.48;10.15;;;;;;;;;;4968675;28;20025;-83
2021/07/21 06:29:34;;;;;;;19.10;10.50;;;;;;;;;;4969309;28;20031;-83
2021/07/21 06:32:20;;;;;;;15.43;9.95;;;;;;;;;;4969224;28;20042;-83
2021/07/21 06:35:06;;;;;;;13.82;9.57;;;;;;;;;;4968814;28;20482;-83
2021/07/21 06:37:51;;;;;;;15.98;9.77;;;;;;;;;;4969054;28;20438;-84
2021/07/21 06:40:36;;;;;;;12.73;10.10;;;;;;;;;;4968514;28;20044;-83
2021/07/21 06:43:22;;;;;;;16.73;9.30;;;;;;;;;;4968398;28;20027;-83
2021/07/21 06:46:07;;;;;;;14.80;10.80;;;;;;;;;;4969225;28;20022;-83
2021/07/21 06:48:53;;;;;;;16.63;11.52;;;;;;;;;;4968449;28;20042;-83
2021/07/21 06:51:38;;;;;;;14.23;9.75;;;;;;;;;;4968698;28;20027;-83
2021/07/21 06:54:23;;;;;;;14.68;9.55;;;;;;;;;;4968698;28;20063;-82
2021/07/21 06:57:09;;;;;;;14.88;9.52;;;;;;;;;;4972355;28;20022;-82
2021/07/21 06:59:54;;;;;;;13.48;9.73;;;;;;;;;;4972670;28;20027;-83
2021/07/21 07:02:39;;;;;;;22.63;10.05;;;;;;;;;;4972281;28;20394;-83
2021/07/21 07:05:24;;;;;;;14.50;9.52;;;;;;;;;;4972467;28;20015;-83
2021/07/21 07:08:09;;;;;;;14.18;9.50;;;;;;;;;;4972534;28;20027;-83
2021/07/21 07:10:55;;;;;;;12.88;9.70;;;;;;;;;;4972171;28;20019;-83
2021/07/21 07:13:40;;;;;;;17.25;10.20;;;;;;;;;;4971949;28;20468;-83
2021/07/21 07:16:25;;;;;;;19.75;12.77;;;;;;;;;;4966592;28;20695;-83
2021/07/21 07:19:10;;;;;;;19.20;11.25;;;;;;;;;;4951265;29;20114;-84
2021/07/21 07:21:58;;;;;;;16.75;10.18;;;;;;;;;;4952605;29;20035;-84
2021/07/21 07:24:44;;;;;;;14.32;9.65;;;;;;;;;;4939706;29;20023;-83
2021/07/21 07:27:29;;;;;;;16.13;9.68;;;;;;;;;;4952684;29;20027;-84
2021/07/21 07:30:14;;;;;;;17.05;9.93;;;;;;;;;;4953136;29;20394;-84
2021/07/21 07:33:00;;;;;;;12.93;8.98;;;;;;;;;;4952808;29;20031;-84
2021/07/21 07:35:45;;;;;;;19.73;10.18;;;;;;;;;;4952733;29;20343;-84
2021/07/21 07:38:31;;;;;;;14.25;8.82;;;;;;;;;;4952822;29;20113;-84
2021/07/21 07:41:16;;;;;;;13.48;9.00;;;;;;;;;;4950280;29;20529;-84
2021/07/21 07:44:03;;;;;;;20.73;9.55;;;;;;;;;;4952398;29;20059;-84
2021/07/21 07:46:48;;;;;;;16.17;10.23;;;;;;;;;;4949174;29;20019;-85
2021/07/21 07:52:56;;;;;;;21.70;10.00;;;;;;;;;;4948184;28;20031;-84
2021/07/21 07:55:41;;;;;;;13.70;9.43;;;;;;;;;;4952455;29;20042;-84
2021/07/21 07:58:26;;;;;;;13.50;9.68;;;;;;;;;;4950765;29;20038;-84
2021/07/21 08:01:12;;;;;;;16.33;9.52;;;;;;;;;;4938581;29;20058;-83
2021/07/21 08:03:57;;;;;;;16.92;9.77;;;;;;;;;;4952167;29;20159;-83
2021/07/21 08:06:42;;;;;;;13.40;8.98;;;;;;;;;;4951315;28;20043;-84
2021/07/21 08:09:27;;;;;;;20.00;9.45;;;;;;;;;;4951873;29;20106;-84
2021/07/21 08:12:13;;;;;;;13.35;9.13;;;;;;;;;;4957721;28;20399;-84
2021/07/21 08:14:58;;;;;;;18.33;11.00;;;;;;;;;;4957574;28;20785;-84
2021/07/21 08:17:43;;;;;;;14.25;9.32;;;;;;;;;;4970893;28;20034;-84
2021/07/21 08:20:29;;;;;;;22.42;18.00;;;;;;;;;;4971100;28;20114;-84
2021/07/21 08:23:15;;;;;;;18.05;13.38;;;;;;;;;;4970740;28;20118;-84
2021/07/21 08:26:00;;;;;;;13.05;8.93;;;;;;;;;;4971021;28;20170;-84
2021/07/21 08:28:45;;;;;;;15.32;9.52;;;;;;;;;;4971189;28;20504;-85
2021/07/21 08:31:31;;;;;;;16.80;9.55;;;;;;;;;;4968955;28;20496;-85
2021/07/21 08:34:16;;;;;;;11.43;8.63;;;;;;;;;;4970774;28;20381;-85
2021/07/21 08:37:02;;;;;;;13.18;8.90;;;;;;;;;;4969630;28;20271;-84
2021/07/21 08:39:47;;;;;;;12.27;8.57;;;;;;;;;;4970024;28;20019;-85
2021/07/21 08:42:32;;;;;;;16.05;9.50;;;;;;;;;;4968970;28;20780;-84
2021/07/21 08:45:18;;;;;;;13.65;8.90;;;;;;;;;;4970796;28;20022;-85
2021/07/21 08:48:03;;;;;;;14.75;9.27;;;;;;;;;;4970464;28;20015;-84
2021/07/21 08:50:49;;;;;;;18.88;12.52;;;;;;;;;;4967172;28;20018;-85
2021/07/21 08:53:35;;;;;;;16.00;10.70;;;;;;;;;;4957121;28;20025;-84
2021/07/21 08:56:20;;;;;;;12.80;10.10;;;;;;;;;;4967062;28;20582;-85
2021/07/21 08:59:06;;;;;;;13.95;8.70;;;;;;;;;;4970859;28;20031;-84
2021/07/21 09:01:51;;;;;;;12.75;8.85;;;;;;;;;;4970301;28;20041;-84
2021/07/21 09:04:36;;;;;;;11.85;8.93;;;;;;;;;;4970087;28;20019;-84
2021/07/21 09:07:22;;;;;;;14.95;9.43;;;;;;;;;;4956907;28;20102;-85
2021/07/21 09:10:17;;;;;;;22.13;9.80;;;;;;;;;;4968646;28;20105;-84
2021/07/21 09:13:02;;;;;;;13.00;8.70;;;;;;;;;;4970198;28;20026;-85
2021/07/21 09:15:48;;;;;;;20.10;14.27;;;;;;;;;;4969769;28;20090;-85
2021/07/21 09:18:48;;;;;;;16.55;11.40;;;;;;;;;;4954263;28;20713;-85
2021/07/21 09:21:33;;;;;;;19.35;10.88;;;;;;;;;;4970046;28;20061;-85
2021/07/21 09:24:20;;;;;;;14.15;9.57;;;;;;;;;;4966950;28;20046;-85
2021/07/21 09:27:05;;;;;;;11.80;8.43;;;;;;;;;;4966488;28;20027;-86
2021/07/21 09:29:52;;;;;;;14.85;8.82;;;;;;;;;;4970092;28;20019;-85
2021/07/21 09:32:49;;;;;;;12.85;8.38;;;;;;;;;;4956562;28;20106;-85
2021/07/21 09:35:40;;;;;;;15.18;8.65;;;;;;;;;;4970182;28;20027;-85
2021/07/21 09:38:27;;;;;;;16.73;9.10;;;;;;;;;;4969752;28;20387;-85
2021/07/21 09:41:24;;;;;;;17.13;9.27;;;;;;;;;;5080555;27;20799;-84
2021/07/21 09:44:09;;;;;;;14.68;8.98;;;;;;;;;;5071665;28;20036;-84
2021/07/21 09:47:07;;;;;;;14.27;9.45;;;;;;;;;;5067519;28;20027;-84
2021/07/21 09:50:11;;;;;;;12.88;8.93;;;;;;;;;;5070642;28;20017;-84
2021/07/21 09:52:57;;;;;;;12.32;8.23;;;;;;;;;;5070936;28;20032;-84
2021/07/21 09:55:44;;;;;;;15.75;9.27;;;;;;;;;;5070981;28;20028;-84
2021/07/21 09:58:31;;;;;;;13.23;8.65;;;;;;;;;;5070963;28;20347;-84
2021/07/21 10:01:27;;;;;;;15.18;9.13;;;;;;;;;;5070388;28;20119;-84
2021/07/21 10:04:13;;;;;;;11.65;8.98;;;;;;;;;;5070932;28;20028;-83
2021/07/21 10:06:59;;;;;;;15.40;9.43;;;;;;;;;;5048748;28;20029;-84
2021/07/21 10:09:44;;;;;;;16.95;9.05;;;;;;;;;;5050616;28;20043;-84
2021/07/21 10:12:29;;;;;;;12.30;8.38;;;;;;;;;;5056967;28;20020;-85
2021/07/21 10:15:19;;;;;;;11.27;8.20;;;;;;;;;;5062599;28;20029;-85
2021/07/21 10:18:05;;;;;;;23.95;19.02;;;;;;;;;;5050082;28;20420;-84
2021/07/21 10:20:51;;;;;;;12.95;8.82;;;;;;;;;;5048350;28;20458;-85
2021/07/21 10:23:36;;;;;;;11.23;8.82;;;;;;;;;;5050208;28;20025;-85
2021/07/21 10:26:21;;;;;;;12.52;8.85;;;;;;;;;;5049863;28;20025;-85
2021/07/21 10:29:07;;;;;;;12.68;8.77;;;;;;;;;;5050159;28;20378;-85
2021/07/21 10:31:53;;;;;;;14.40;9.20;;;;;;;;;;5051296;28;20074;-84
2021/07/21 10:34:39;;;;;;;13.13;8.77;;;;;;;;;;5054597;28;20025;-84
2021/07/21 10:37:24;;;;;;;12.50;8.13;;;;;;;;;;5036161;28;20017;-84
2021/07/21 10:40:10;;;;;;;13.63;8.80;;;;;;;;;;5049530;28;20123;-85
2021/07/21 10:42:59;;;;;;;14.35;9.23;;;;;;;;;;5049879;28;20031;-82
2021/07/21 10:45:44;;;;;;;;;;;;;;;;;;5050697;28;20051;-84
2021/07/21 10:48:56;;;;;;;15.00;8.38;;;;;;;;;;5049416;28;20174;-85
2021/07/21 10:54:42;;;;;;;;;;;;;;;;;;5036539;28;20086;-84
2021/07/21 11:00:37;;;;;;;13.15;9.73;;;;;;;;;;5034461;28;20375;-84
2021/07/21 11:03:23;;;;;;;14.68;8.65;;;;;;;;;;5036220;28;20043;-84
2021/07/21 11:06:10;;;;;;;13.70;9.10;;;;;;;;;;5036124;28;20048;-84
2021/07/21 11:08:55;;;;;;;14.30;9.13;;;;;;;;;;5036103;28;20049;-86
2021/07/21 11:11:41;;;;;;;13.77;10.23;;;;;;;;;;5037677;28;20029;-85
2021/07/21 11:14:30;;;;;;;14.52;8.88;;;;;;;;;;5054933;28;20089;-84
2021/07/21 11:17:15;;;;;;;12.43;8.30;;;;;;;;;;5022304;28;20028;-85
2021/07/21 11:20:01;;;;;;;17.05;9.50;;;;;;;;;;5035663;28;20036;-85
2021/07/21 11:22:46;;;;;;;14.73;9.57;;;;;;;;;;5035837;28;20348;-86
2021/07/21 11:25:33;;;;;;;13.05;8.27;;;;;;;;;;5035855;28;20032;-85
2021/07/21 11:28:26;;;;;;;13.93;9.68;;;;;;;;;;5035620;28;20017;-85
2021/07/21 11:31:12;;;;;;;16.00;9.52;;;;;;;;;;5034421;28;20025;-85
2021/07/21 11:34:01;;;;;;;14.98;9.57;;;;;;;;;;5035433;28;20124;-85
2021/07/21 11:36:47;;;;;;;12.07;8.98;;;;;;;;;;5036066;28;20037;-85
2021/07/21 11:39:45;;;;;;;13.80;9.65;;;;;;;;;;5035563;28;20399;-85
2021/07/21 11:42:34;;;;;;;14.43;9.10;;;;;;;;;;5035618;28;20017;-84
2021/07/21 11:45:20;;;;;;;13.25;9.55;;;;;;;;;;5021324;28;20037;-85
2021/07/21 11:48:06;;;;;;;13.40;10.25;;;;;;;;;;5035768;28;20036;-85
2021/07/21 11:50:52;;;;;;;11.65;8.75;;;;;;;;;;5019736;28;20035;-85
2021/07/21 11:53:37;;;;;;;14.52;9.30;;;;;;;;;;5035007;28;20090;-85
2021/07/21 11:56:23;;;;;;;14.60;9.68;;;;;;;;;;5035501;28;20032;-85
2021/07/21 11:59:08;;;;;;;13.55;10.38;;;;;;;;;;5034877;28;20029;-85
2021/07/21 12:02:07;;;;;;;16.02;11.38;;;;;;;;;;5035467;28;20430;-85
2021/07/21 12:04:54;;;;;;;21.50;18.08;;;;;;;;;;5040254;28;20247;-85
2021/07/21 12:07:39;;;;;;;14.57;10.80;;;;;;;;;;5042586;28;20041;-85
2021/07/21 12:10:25;;;;;;;13.60;10.13;;;;;;;;;;5034747;28;20033;-85
2021/07/21 12:13:10;;;;;;;12.27;8.90;;;;;;;;;;5048816;28;20028;-85
2021/07/21 12:15:59;;;;;;;12.43;9.90;;;;;;;;;;5041864;28;20036;-85
2021/07/21 12:18:44;;;;;;;16.02;9.05;;;;;;;;;;5035052;28;20039;-85
2021/07/21 12:21:33;;;;;;;15.73;10.15;;;;;;;;;;5034903;28;20033;-85
2021/07/21 12:24:30;;;;;;;13.57;10.00;;;;;;;;;;5034565;28;20039;-85
2021/07/21 12:27:29;;;;;;;13.60;10.18;;;;;;;;;;5034660;28;20127;-85
2021/07/21 12:30:14;;;;;;;;;;;;;;;;;;5035108;28;20364;-86
2021/07/21 12:32:59;;;;;;;15.70;10.07;;;;;;;;;;5034533;28;19908;-86
2021/07/21 12:35:45;;;;;;;15.20;8.80;;;;;;;;;;5035012;28;20414;-85
2021/07/21 12:38:30;;;;;;;14.43;10.00;;;;;;;;;;5034250;28;20036;-85
2021/07/21 12:41:22;;;;;;;15.63;10.32;;;;;;;;;;5033726;28;20395;-86
2021/07/21 12:44:14;;;;;;;14.05;11.25;;;;;;;;;;5034457;28;20401;-86
2021/07/21 12:47:18;;;;;;;27.45;22.15;;;;;;;;;;5035071;28;20025;-86
2021/07/21 12:50:11;;;;;;;16.75;10.30;;;;;;;;;;5036269;28;20428;-86
2021/07/21 12:53:04;;;;;;;17.23;9.82;;;;;;;;;;5034162;28;20024;-86
2021/07/21 12:55:50;;;;;;;12.95;9.45;;;;;;;;;;5033993;28;20078;-85
2021/07/21 12:58:35;;;;;;;14.50;10.85;;;;;;;;;;5047424;28;20044;-86
2021/07/21 13:01:24;;;;;;;16.02;9.88;;;;;;;;;;5019849;28;20047;-85
2021/07/21 13:04:09;;;;;;;12.82;9.18;;;;;;;;;;5031719;28;20027;-86
2021/07/21 13:07:00;;;;;;;13.15;9.60;;;;;;;;;;5034037;28;20069;-85
2021/07/21 13:09:49;;;;;;;15.68;9.93;;;;;;;;;;5031669;28;20486;-86
2021/07/21 13:12:34;;;;;;;12.77;9.55;;;;;;;;;;5042931;28;20091;-85
2021/07/21 13:15:23;;;;;;;13.27;9.55;;;;;;;;;;5045018;28;20498;-85
2021/07/21 13:18:15;;;;;;;15.00;9.95;;;;;;;;;;5033906;28;20029;-85
2021/07/21 13:21:00;;;;;;;13.98;9.50;;;;;;;;;;5033286;28;20031;-86
2021/07/21 13:23:46;;;;;;;11.02;9.13;;;;;;;;;;5033738;28;20050;-85
2021/07/21 13:26:31;;;;;;;15.60;10.07;;;;;;;;;;5034021;28;20025;-85
2021/07/21 13:29:17;;;;;;;14.40;9.95;;;;;;;;;;5033397;28;20067;-85
2021/07/21 13:32:03;;;;;;;17.23;10.32;;;;;;;;;;5032118;28;20563;-85
2021/07/21 13:35:00;;;;;;;12.13;9.15;;;;;;;;;;5032121;28;20028;-85
2021/07/21 13:37:54;;;;;;;15.02;10.30;;;;;;;;;;5033866;28;20372;-85
2021/07/21 13:40:39;;;;;;;15.00;9.73;;;;;;;;;;5032876;28;20103;-85
2021/07/21 13:43:25;;;;;;;12.07;9.50;;;;;;;;;;5031889;28;20017;-85
2021/07/21 13:46:21;;;;;;;14.68;9.98;;;;;;;;;;5033060;28;20021;-85
2021/07/21 13:49:07;;;;;;;15.32;9.15;;;;;;;;;;5032267;28;20053;-85
2021/07/21 13:51:58;;;;;;;15.82;10.07;;;;;;;;;;5019291;28;20128;-85
2021/07/21 13:54:43;;;;;;;13.65;9.68;;;;;;;;;;5033166;28;20599;-85
2021/07/21 13:57:28;;;;;;;16.48;10.07;;;;;;;;;;5033033;28;20517;-85
2021/07/21 14:00:14;;;;;;;13.07;9.27;;;;;;;;;;5031510;28;20025;-85
2021/07/21 14:02:59;;;;;;;13.55;9.50;;;;;;;;;;5033126;28;20333;-85
2021/07/21 14:05:44;;;;;;;13.60;8.52;;;;;;;;;;5032787;28;20467;-85
2021/07/21 14:08:29;;;;;;;11.70;9.02;;;;;;;;;;5033385;28;20083;-85
2021/07/21 14:11:14;;;;;;;15.73;9.93;;;;;;;;;;5031587;28;20438;-84
2021/07/21 14:14:03;;;;;;;14.50;10.82;;;;;;;;;;5026853;28;20380;-84
2021/07/21 14:16:49;;;;;;;15.45;9.50;;;;;;;;;;5011645;28;20026;-84
2021/07/21 14:19:34;;;;;;;13.18;8.60;;;;;;;;;;5013153;28;20112;-86
2021/07/21 14:22:20;;;;;;;15.60;9.25;;;;;;;;;;5013451;28;20108;-85
2021/07/21 14:25:06;;;;;;;11.65;8.30;;;;;;;;;;4999600;28;20091;-84
2021/07/21 14:27:52;;;;;;;12.57;8.73;;;;;;;;;;5016595;28;20021;-84
2021/07/21 14:30:37;;;;;;;15.82;10.07;;;;;;;;;;5015097;28;20116;-84
2021/07/21 14:33:22;;;;;;;14.60;8.63;;;;;;;;;;5030429;28;20029;-84
2021/07/21 14:36:07;;;;;;;13.73;8.40;;;;;;;;;;5016765;28;20104;-85
2021/07/21 14:38:55;;;;;;;17.95;14.30;;;;;;;;;;5016894;28;20035;-86
2021/07/21 14:41:41;;;;;;;15.43;12.32;;;;;;;;;;5016568;28;20046;-85
2021/07/21 14:44:26;;;;;;;17.00;9.63;;;;;;;;;;5017113;28;20104;-85
2021/07/21 14:47:11;;;;;;;13.70;8.65;;;;;;;;;;5017004;28;20040;-85
2021/07/21 14:49:56;;;;;;;11.65;8.35;;;;;;;;;;5016340;28;20108;-85
2021/07/21 14:52:42;;;;;;;13.68;8.60;;;;;;;;;;5016763;28;20025;-86
2021/07/21 14:55:28;;;;;;;11.98;8.70;;;;;;;;;;5016376;28;20043;-85
2021/07/21 14:58:13;;;;;;;12.98;8.55;;;;;;;;;;5017032;28;20391;-86
2021/07/21 15:00:58;;;;;;;12.50;8.20;;;;;;;;;;5014687;28;20132;-86
2021/07/21 15:03:43;;;;;;;12.38;8.98;;;;;;;;;;5016303;28;20037;-85
2021/07/21 15:06:30;;;;;;;11.93;8.18;;;;;;;;;;5016306;28;20025;-85
2021/07/21 15:09:16;;;;;;;13.07;8.30;;;;;;;;;;5016083;28;20475;-85
2021/07/21 15:12:01;;;;;;;17.20;8.63;;;;;;;;;;5024777;28;20096;-85
2021/07/21 15:14:46;;;;;;;11.88;8.55;;;;;;;;;;5052414;28;20117;-85
2021/07/21 15:17:32;;;;;;;13.07;8.48;;;;;;;;;;5035970;28;20529;-85
2021/07/21 15:20:18;;;;;;;25.52;22.65;;;;;;;;;;5033723;28;20502;-86
2021/07/21 15:23:04;;;;;;;14.40;9.23;;;;;;;;;;5035809;28;20108;-85
2021/07/21 15:25:49;;;;;;;11.35;7.90;;;;;;;;;;5035450;28;20021;-85
2021/07/21 15:28:35;;;;;;;13.10;7.90;;;;;;;;;;5035863;28;20220;-85
2021/07/21 15:31:20;;;;;;;10.98;7.80;;;;;;;;;;5021956;28;20021;-85
2021/07/21 15:34:06;;;;;;;9.77;7.20;;;;;;;;;;5035387;28;20430;-85
2021/07/21 15:36:51;;;;;;;11.02;7.93;;;;;;;;;;5035768;28;20025;-85
2021/07/21 15:39:36;;;;;;;11.68;7.95;;;;;;;;;;5021246;28;20037;-85
2021/07/21 15:42:22;;;;;;;14.43;7.80;;;;;;;;;;5021363;28;20049;-85
2021/07/21 15:45:08;;;;;;;13.40;6.72;;;;;;;;;;5035808;28;20021;-85
2021/07/21 15:47:53;;;;;;;12.30;6.72;;;;;;;;;;5033567;28;20463;-85
2021/07/21 15:50:38;;;;;;;13.27;7.00;;;;;;;;;;5034605;28;20542;-84
2021/07/21 15:53:23;;;;;;;12.48;7.55;;;;;;;;;;5035193;28;20025;-85
2021/07/21 15:56:09;;;;;;;11.95;7.05;;;;;;;;;;5035353;28;20035;-84
2021/07/21 15:58:57;;;;;;;42.47;37.97;;;;;;;;;;5035161;28;20040;-85
2021/07/21 16:01:42;;;;;;;10.95;7.95;;;;;;;;;;5034944;28;20064;-85
2021/07/21 16:04:27;;;;;;;12.27;7.78;;;;;;;;;;5034841;28;20055;-85
2021/07/21 16:07:12;;;;;;;12.60;6.82;;;;;;;;;;5035313;28;20071;-85
2021/07/21 16:09:58;;;;;;;8.77;6.45;;;;;;;;;;5034713;28;20068;-85
2021/07/21 16:12:43;;;;;;;10.45;6.97;;;;;;;;;;5045275;28;20028;-84
2021/07/21 16:15:29;;;;;;;14.18;6.70;;;;;;;;;;5045598;28;20016;-84
2021/07/21 16:18:14;;;;;;;14.13;7.25;;;;;;;;;;5034464;28;20025;-85
2021/07/21 16:21:00;;;;;;;11.52;6.78;;;;;;;;;;5020506;28;20104;-84
2021/07/21 16:23:45;;;;;;;15.27;6.93;;;;;;;;;;5021151;28;20079;-85
2021/07/21 16:26:30;;;;;;;14.63;6.43;;;;;;;;;;5034316;28;20035;-84
2021/07/21 16:29:16;;;;;;;13.20;6.25;;;;;;;;;;5032938;28;20059;-85
2021/07/21 16:32:02;;;;;;;12.07;7.03;;;;;;;;;;5034727;28;20399;-84
2021/07/21 16:34:47;;;;;;;12.70;7.18;;;;;;;;;;5034175;28;20020;-85